sensor_id;sensor_type;location;lat;lon;timestamp;P1;durP1;ratioP1;P2;durP2;ratioP2
4738;SDS011;2383;48.632;10.156;2024-03-08T00:02:29;26.30;;;17.40;;
4738;SDS011;2383;48.632;10.156;2024-03-08T00:06:32;31.07;;;19.63;;
4738;SDS011;2383;48.632;10.156;2024-03-08T00:10:34;30.00;;;16.63;;
4738;SDS011;2383;48.632;10.156;2024-03-08T00:14:36;26.37;;;16.13;;
4738;SDS011;2383;48.632;10.156;2024-03-08T00:18:39;25.97;;;16.00;;
4738;SDS011;2383;48.632;10.156;2024-03-08T00:22:41;27.67;;;16.10;;
4738;SDS011;2383;48.632;10.156;2024-03-08T00:26:43;23.83;;;15.23;;
4738;SDS011;2383;48.632;10.156;2024-03-08T00:30:45;29.67;;;15.83;;
4738;SDS011;2383;48.632;10.156;2024-03-08T00:34:48;25.97;;;16.53;;
4738;SDS011;2383;48.632;10.156;2024-03-08T00:38:50;29.53;;;19.10;;
4738;SDS011;2383;48.632;10.156;2024-03-08T00:42:51;30.17;;;18.47;;
4738;SDS011;2383;48.632;10.156;2024-03-08T00:46:54;25.17;;;15.70;;
4738;SDS011;2383;48.632;10.156;2024-03-08T00:50:56;23.33;;;15.10;;
4738;SDS011;2383;48.632;10.156;2024-03-08T00:54:59;28.47;;;18.43;;
4738;SDS011;2383;48.632;10.156;2024-03-08T00:59:01;28.73;;;17.30;;
4738;SDS011;2383;48.632;10.156;2024-03-08T01:03:04;24.77;;;15.67;;
4738;SDS011;2383;48.632;10.156;2024-03-08T01:07:06;24.73;;;16.10;;
4738;SDS011;2383;48.632;10.156;2024-03-08T01:11:09;24.10;;;15.20;;
4738;SDS011;2383;48.632;10.156;2024-03-08T01:15:11;28.97;;;16.33;;
4738;SDS011;2383;48.632;10.156;2024-03-08T01:19:13;24.63;;;15.90;;
4738;SDS011;2383;48.632;10.156;2024-03-08T01:23:15;26.03;;;15.67;;
4738;SDS011;2383;48.632;10.156;2024-03-08T01:27:17;23.63;;;15.43;;
4738;SDS011;2383;48.632;10.156;2024-03-08T01:31:19;25.03;;;15.97;;
4738;SDS011;2383;48.632;10.156;2024-03-08T01:35:21;29.60;;;17.07;;
4738;SDS011;2383;48.632;10.156;2024-03-08T01:39:23;24.17;;;15.00;;
4738;SDS011;2383;48.632;10.156;2024-03-08T01:43:26;25.43;;;16.13;;
4738;SDS011;2383;48.632;10.156;2024-03-08T01:47:30;21.27;;;14.43;;
4738;SDS011;2383;48.632;10.156;2024-03-08T01:51:34;24.93;;;15.33;;
4738;SDS011;2383;48.632;10.156;2024-03-08T01:55:36;26.63;;;16.47;;
4738;SDS011;2383;48.632;10.156;2024-03-08T01:59:39;25.57;;;15.13;;
4738;SDS011;2383;48.632;10.156;2024-03-08T02:03:43;25.63;;;15.93;;
4738;SDS011;2383;48.632;10.156;2024-03-08T02:07:46;27.77;;;16.87;;
4738;SDS011;2383;48.632;10.156;2024-03-08T02:11:48;29.53;;;16.90;;
4738;SDS011;2383;48.632;10.156;2024-03-08T02:16:00;25.73;;;16.43;;
4738;SDS011;2383;48.632;10.156;2024-03-08T02:20:02;26.73;;;16.17;;
4738;SDS011;2383;48.632;10.156;2024-03-08T02:24:06;26.23;;;16.97;;
4738;SDS011;2383;48.632;10.156;2024-03-08T02:28:09;29.40;;;16.80;;
4738;SDS011;2383;48.632;10.156;2024-03-08T02:32:12;27.57;;;16.97;;
4738;SDS011;2383;48.632;10.156;2024-03-08T02:36:14;25.87;;;16.63;;
4738;SDS011;2383;48.632;10.156;2024-03-08T02:40:18;28.53;;;17.67;;
4738;SDS011;2383;48.632;10.156;2024-03-08T02:44:19;25.50;;;15.67;;
4738;SDS011;2383;48.632;10.156;2024-03-08T02:48:23;25.83;;;16.10;;
4738;SDS011;2383;48.632;10.156;2024-03-08T02:52:25;28.30;;;15.57;;
4738;SDS011;2383;48.632;10.156;2024-03-08T02:56:27;25.53;;;16.50;;
4738;SDS011;2383;48.632;10.156;2024-03-08T03:00:29;28.40;;;17.00;;
4738;SDS011;2383;48.632;10.156;2024-03-08T03:04:35;28.30;;;17.57;;
4738;SDS011;2383;48.632;10.156;2024-03-08T03:08:37;29.70;;;17.03;;
4738;SDS011;2383;48.632;10.156;2024-03-08T03:12:40;28.43;;;17.50;;
4738;SDS011;2383;48.632;10.156;2024-03-08T03:16:42;29.43;;;17.63;;
4738;SDS011;2383;48.632;10.156;2024-03-08T03:20:45;28.73;;;16.87;;
4738;SDS011;2383;48.632;10.156;2024-03-08T03:24:47;25.43;;;15.90;;
4738;SDS011;2383;48.632;10.156;2024-03-08T03:28:49;27.77;;;16.97;;
4738;SDS011;2383;48.632;10.156;2024-03-08T03:32:51;25.20;;;16.80;;
4738;SDS011;2383;48.632;10.156;2024-03-08T03:36:53;27.70;;;16.60;;
4738;SDS011;2383;48.632;10.156;2024-03-08T03:40:57;26.13;;;16.23;;
4738;SDS011;2383;48.632;10.156;2024-03-08T03:45:05;29.47;;;17.67;;
4738;SDS011;2383;48.632;10.156;2024-03-08T03:49:08;26.50;;;17.13;;
4738;SDS011;2383;48.632;10.156;2024-03-08T03:53:10;27.37;;;17.20;;
4738;SDS011;2383;48.632;10.156;2024-03-08T03:57:12;31.30;;;17.70;;
4738;SDS011;2383;48.632;10.156;2024-03-08T04:01:14;33.33;;;18.80;;
4738;SDS011;2383;48.632;10.156;2024-03-08T04:05:16;30.07;;;17.80;;
4738;SDS011;2383;48.632;10.156;2024-03-08T04:09:18;28.73;;;17.83;;
4738;SDS011;2383;48.632;10.156;2024-03-08T04:13:20;28.00;;;17.63;;
4738;SDS011;2383;48.632;10.156;2024-03-08T04:17:22;27.50;;;18.17;;
4738;SDS011;2383;48.632;10.156;2024-03-08T04:21:25;28.63;;;18.13;;
4738;SDS011;2383;48.632;10.156;2024-03-08T04:25:28;26.00;;;17.10;;
4738;SDS011;2383;48.632;10.156;2024-03-08T04:29:30;25.43;;;16.33;;
4738;SDS011;2383;48.632;10.156;2024-03-08T04:33:35;34.63;;;19.37;;
4738;SDS011;2383;48.632;10.156;2024-03-08T04:37:38;30.13;;;18.63;;
4738;SDS011;2383;48.632;10.156;2024-03-08T04:41:40;35.97;;;19.00;;
4738;SDS011;2383;48.632;10.156;2024-03-08T04:45:44;33.23;;;19.10;;
4738;SDS011;2383;48.632;10.156;2024-03-08T04:49:47;33.77;;;19.60;;
4738;SDS011;2383;48.632;10.156;2024-03-08T04:53:48;32.30;;;19.33;;
4738;SDS011;2383;48.632;10.156;2024-03-08T04:57:51;32.00;;;18.73;;
4738;SDS011;2383;48.632;10.156;2024-03-08T05:01:53;30.73;;;18.57;;
4738;SDS011;2383;48.632;10.156;2024-03-08T05:05:55;30.93;;;17.80;;
4738;SDS011;2383;48.632;10.156;2024-03-08T05:09:57;30.73;;;18.63;;
4738;SDS011;2383;48.632;10.156;2024-03-08T05:14:00;34.53;;;20.53;;
4738;SDS011;2383;48.632;10.156;2024-03-08T05:18:02;35.57;;;19.70;;
4738;SDS011;2383;48.632;10.156;2024-03-08T05:22:04;33.07;;;18.97;;
4738;SDS011;2383;48.632;10.156;2024-03-08T05:26:06;29.07;;;18.47;;
4738;SDS011;2383;48.632;10.156;2024-03-08T05:30:10;30.43;;;18.70;;
4738;SDS011;2383;48.632;10.156;2024-03-08T05:34:16;34.33;;;20.40;;
4738;SDS011;2383;48.632;10.156;2024-03-08T05:38:18;28.43;;;19.07;;
4738;SDS011;2383;48.632;10.156;2024-03-08T05:42:21;34.17;;;21.10;;
4738;SDS011;2383;48.632;10.156;2024-03-08T05:46:23;30.10;;;18.87;;
4738;SDS011;2383;48.632;10.156;2024-03-08T05:50:25;30.27;;;19.03;;
4738;SDS011;2383;48.632;10.156;2024-03-08T05:54:28;36.17;;;20.40;;
4738;SDS011;2383;48.632;10.156;2024-03-08T05:58:30;38.63;;;20.13;;
4738;SDS011;2383;48.632;10.156;2024-03-08T06:02:32;36.20;;;20.33;;
4738;SDS011;2383;48.632;10.156;2024-03-08T06:06:35;35.73;;;21.10;;
4738;SDS011;2383;48.632;10.156;2024-03-08T06:10:39;31.63;;;19.47;;
4738;SDS011;2383;48.632;10.156;2024-03-08T06:14:41;33.43;;;19.80;;
4738;SDS011;2383;48.632;10.156;2024-03-08T06:18:44;35.77;;;19.20;;
4738;SDS011;2383;48.632;10.156;2024-03-08T06:22:48;34.97;;;20.30;;
4738;SDS011;2383;48.632;10.156;2024-03-08T06:26:50;33.97;;;19.27;;
4738;SDS011;2383;48.632;10.156;2024-03-08T06:30:53;33.40;;;19.57;;
4738;SDS011;2383;48.632;10.156;2024-03-08T06:34:55;31.80;;;18.20;;
4738;SDS011;2383;48.632;10.156;2024-03-08T06:38:57;34.20;;;19.83;;
4738;SDS011;2383;48.632;10.156;2024-03-08T06:42:59;33.23;;;18.40;;
4738;SDS011;2383;48.632;10.156;2024-03-08T06:47:01;31.13;;;18.90;;
4738;SDS011;2383;48.632;10.156;2024-03-08T06:51:03;31.37;;;18.07;;
4738;SDS011;2383;48.632;10.156;2024-03-08T06:55:06;39.97;;;21.43;;
4738;SDS011;2383;48.632;10.156;2024-03-08T06:59:09;35.10;;;21.03;;
4738;SDS011;2383;48.632;10.156;2024-03-08T07:03:14;39.37;;;22.53;;
4738;SDS011;2383;48.632;10.156;2024-03-08T07:07:18;33.00;;;20.27;;
4738;SDS011;2383;48.632;10.156;2024-03-08T07:11:23;32.17;;;19.20;;
4738;SDS011;2383;48.632;10.156;2024-03-08T07:15:25;35.57;;;22.17;;
4738;SDS011;2383;48.632;10.156;2024-03-08T07:19:27;32.53;;;20.10;;
4738;SDS011;2383;48.632;10.156;2024-03-08T07:23:29;32.13;;;18.97;;
4738;SDS011;2383;48.632;10.156;2024-03-08T07:31:53;35.50;;;20.97;;
4738;SDS011;2383;48.632;10.156;2024-03-08T07:36:13;32.10;;;19.27;;
4738;SDS011;2383;48.632;10.156;2024-03-08T07:40:16;32.57;;;19.53;;
4738;SDS011;2383;48.632;10.156;2024-03-08T07:44:19;37.73;;;20.73;;
4738;SDS011;2383;48.632;10.156;2024-03-08T07:48:21;36.50;;;20.70;;
4738;SDS011;2383;48.632;10.156;2024-03-08T07:52:23;35.27;;;20.93;;
4738;SDS011;2383;48.632;10.156;2024-03-08T07:56:25;35.83;;;20.37;;
4738;SDS011;2383;48.632;10.156;2024-03-08T08:00:27;36.70;;;20.67;;
4738;SDS011;2383;48.632;10.156;2024-03-08T08:04:29;35.47;;;21.83;;
4738;SDS011;2383;48.632;10.156;2024-03-08T08:08:31;37.20;;;21.03;;
4738;SDS011;2383;48.632;10.156;2024-03-08T08:12:33;42.60;;;23.13;;
4738;SDS011;2383;48.632;10.156;2024-03-08T08:16:38;40.57;;;22.13;;
4738;SDS011;2383;48.632;10.156;2024-03-08T08:20:42;43.10;;;23.10;;
4738;SDS011;2383;48.632;10.156;2024-03-08T08:24:44;37.47;;;21.10;;
4738;SDS011;2383;48.632;10.156;2024-03-08T08:28:46;35.77;;;20.47;;
4738;SDS011;2383;48.632;10.156;2024-03-08T08:32:48;40.23;;;22.03;;
4738;SDS011;2383;48.632;10.156;2024-03-08T08:36:51;43.07;;;23.87;;
4738;SDS011;2383;48.632;10.156;2024-03-08T08:40:54;43.80;;;22.03;;
4738;SDS011;2383;48.632;10.156;2024-03-08T08:44:59;41.23;;;23.03;;
4738;SDS011;2383;48.632;10.156;2024-03-08T08:49:15;41.47;;;23.50;;
4738;SDS011;2383;48.632;10.156;2024-03-08T08:53:22;41.90;;;22.43;;
4738;SDS011;2383;48.632;10.156;2024-03-08T08:57:24;38.83;;;21.93;;
4738;SDS011;2383;48.632;10.156;2024-03-08T09:01:28;36.83;;;21.60;;
4738;SDS011;2383;48.632;10.156;2024-03-08T09:05:30;39.07;;;21.57;;
4738;SDS011;2383;48.632;10.156;2024-03-08T09:09:34;37.63;;;21.00;;
4738;SDS011;2383;48.632;10.156;2024-03-08T09:13:36;40.13;;;21.50;;
4738;SDS011;2383;48.632;10.156;2024-03-08T09:17:39;34.73;;;20.70;;
4738;SDS011;2383;48.632;10.156;2024-03-08T09:21:43;37.87;;;20.97;;
4738;SDS011;2383;48.632;10.156;2024-03-08T09:25:45;39.27;;;20.83;;
4738;SDS011;2383;48.632;10.156;2024-03-08T09:29:48;38.17;;;21.03;;
4738;SDS011;2383;48.632;10.156;2024-03-08T09:33:50;43.10;;;23.60;;
4738;SDS011;2383;48.632;10.156;2024-03-08T09:37:53;41.17;;;23.23;;
4738;SDS011;2383;48.632;10.156;2024-03-08T09:41:55;40.40;;;22.33;;
4738;SDS011;2383;48.632;10.156;2024-03-08T09:45:57;40.20;;;21.13;;
4738;SDS011;2383;48.632;10.156;2024-03-08T09:50:00;43.00;;;21.87;;
4738;SDS011;2383;48.632;10.156;2024-03-08T09:54:03;41.00;;;22.53;;
4738;SDS011;2383;48.632;10.156;2024-03-08T09:58:18;39.43;;;21.50;;
4738;SDS011;2383;48.632;10.156;2024-03-08T10:02:28;39.40;;;21.93;;
4738;SDS011;2383;48.632;10.156;2024-03-08T10:06:31;41.93;;;21.43;;
4738;SDS011;2383;48.632;10.156;2024-03-08T10:10:34;36.43;;;20.40;;
4738;SDS011;2383;48.632;10.156;2024-03-08T10:14:38;44.13;;;24.17;;
4738;SDS011;2383;48.632;10.156;2024-03-08T10:18:41;38.67;;;22.10;;
4738;SDS011;2383;48.632;10.156;2024-03-08T10:22:43;41.93;;;21.50;;
4738;SDS011;2383;48.632;10.156;2024-03-08T10:27:03;39.43;;;22.70;;
4738;SDS011;2383;48.632;10.156;2024-03-08T10:31:06;36.83;;;21.77;;
4738;SDS011;2383;48.632;10.156;2024-03-08T10:35:08;35.03;;;21.37;;
4738;SDS011;2383;48.632;10.156;2024-03-08T10:39:13;35.60;;;20.97;;
4738;SDS011;2383;48.632;10.156;2024-03-08T10:43:25;35.00;;;21.40;;
4738;SDS011;2383;48.632;10.156;2024-03-08T11:33:45;37.03;;;22.17;;
4738;SDS011;2383;48.632;10.156;2024-03-08T11:37:49;36.30;;;19.77;;
4738;SDS011;2383;48.632;10.156;2024-03-08T11:41:52;32.20;;;18.83;;
4738;SDS011;2383;48.632;10.156;2024-03-08T11:46:07;32.60;;;20.43;;
4738;SDS011;2383;48.632;10.156;2024-03-08T11:50:10;34.43;;;20.10;;
4738;SDS011;2383;48.632;10.156;2024-03-08T11:54:13;36.33;;;21.37;;
4738;SDS011;2383;48.632;10.156;2024-03-08T11:58:15;32.70;;;20.47;;
4738;SDS011;2383;48.632;10.156;2024-03-08T12:02:17;37.37;;;21.43;;
4738;SDS011;2383;48.632;10.156;2024-03-08T12:06:20;36.33;;;21.53;;
4738;SDS011;2383;48.632;10.156;2024-03-08T12:10:23;36.33;;;20.90;;
4738;SDS011;2383;48.632;10.156;2024-03-08T12:14:26;35.30;;;22.23;;
4738;SDS011;2383;48.632;10.156;2024-03-08T12:18:32;35.00;;;21.60;;
4738;SDS011;2383;48.632;10.156;2024-03-08T12:22:40;31.80;;;20.07;;
4738;SDS011;2383;48.632;10.156;2024-03-08T12:26:43;36.67;;;21.77;;
4738;SDS011;2383;48.632;10.156;2024-03-08T12:30:46;37.33;;;22.17;;
4738;SDS011;2383;48.632;10.156;2024-03-08T12:34:54;35.30;;;22.80;;
4738;SDS011;2383;48.632;10.156;2024-03-08T12:38:58;31.20;;;20.27;;
4738;SDS011;2383;48.632;10.156;2024-03-08T12:43:01;34.07;;;21.27;;
4738;SDS011;2383;48.632;10.156;2024-03-08T12:47:04;32.23;;;19.57;;
4738;SDS011;2383;48.632;10.156;2024-03-08T12:51:07;29.87;;;18.77;;
4738;SDS011;2383;48.632;10.156;2024-03-08T12:55:10;28.03;;;19.10;;
4738;SDS011;2383;48.632;10.156;2024-03-08T12:59:13;32.17;;;19.80;;
4738;SDS011;2383;48.632;10.156;2024-03-08T13:03:16;31.63;;;19.80;;
4738;SDS011;2383;48.632;10.156;2024-03-08T13:07:18;30.07;;;19.33;;
4738;SDS011;2383;48.632;10.156;2024-03-08T13:11:21;33.07;;;19.73;;
4738;SDS011;2383;48.632;10.156;2024-03-08T13:15:25;31.92;;;20.50;;
4738;SDS011;2383;48.632;10.156;2024-03-08T13:19:27;34.03;;;21.10;;
4738;SDS011;2383;48.632;10.156;2024-03-08T13:23:29;32.73;;;20.00;;
4738;SDS011;2383;48.632;10.156;2024-03-08T13:27:32;32.10;;;20.03;;
4738;SDS011;2383;48.632;10.156;2024-03-08T13:31:34;36.30;;;20.73;;
4738;SDS011;2383;48.632;10.156;2024-03-08T13:35:38;28.90;;;18.53;;
4738;SDS011;2383;48.632;10.156;2024-03-08T13:39:42;29.90;;;18.57;;
4738;SDS011;2383;48.632;10.156;2024-03-08T13:43:47;29.90;;;18.83;;
4738;SDS011;2383;48.632;10.156;2024-03-08T13:47:55;31.33;;;20.70;;
4738;SDS011;2383;48.632;10.156;2024-03-08T13:51:58;28.30;;;18.27;;
4738;SDS011;2383;48.632;10.156;2024-03-08T13:56:01;26.17;;;17.67;;
4738;SDS011;2383;48.632;10.156;2024-03-08T14:00:05;27.60;;;18.37;;
4738;SDS011;2383;48.632;10.156;2024-03-08T14:04:13;29.87;;;19.43;;
4738;SDS011;2383;48.632;10.156;2024-03-08T14:08:18;28.33;;;17.33;;
4738;SDS011;2383;48.632;10.156;2024-03-08T14:12:20;27.83;;;17.80;;
4738;SDS011;2383;48.632;10.156;2024-03-08T14:16:23;27.73;;;18.10;;
4738;SDS011;2383;48.632;10.156;2024-03-08T14:20:45;34.97;;;20.67;;
4738;SDS011;2383;48.632;10.156;2024-03-08T14:24:49;25.47;;;16.90;;
4738;SDS011;2383;48.632;10.156;2024-03-08T14:28:53;23.50;;;15.70;;
4738;SDS011;2383;48.632;10.156;2024-03-08T14:32:56;25.90;;;15.90;;
4738;SDS011;2383;48.632;10.156;2024-03-08T14:36:58;24.03;;;15.57;;
4738;SDS011;2383;48.632;10.156;2024-03-08T14:41:02;24.93;;;16.03;;
4738;SDS011;2383;48.632;10.156;2024-03-08T14:45:06;22.10;;;15.27;;
4738;SDS011;2383;48.632;10.156;2024-03-08T14:49:09;24.80;;;16.07;;
4738;SDS011;2383;48.632;10.156;2024-03-08T14:53:10;22.20;;;14.83;;
4738;SDS011;2383;48.632;10.156;2024-03-08T14:57:18;22.73;;;15.40;;
4738;SDS011;2383;48.632;10.156;2024-03-08T15:01:20;22.63;;;14.87;;
4738;SDS011;2383;48.632;10.156;2024-03-08T15:05:26;24.03;;;16.00;;
4738;SDS011;2383;48.632;10.156;2024-03-08T15:09:28;21.13;;;14.70;;
4738;SDS011;2383;48.632;10.156;2024-03-08T15:13:32;21.33;;;13.87;;
4738;SDS011;2383;48.632;10.156;2024-03-08T15:17:42;20.13;;;12.93;;
4738;SDS011;2383;48.632;10.156;2024-03-08T15:21:46;23.77;;;14.37;;
4738;SDS011;2383;48.632;10.156;2024-03-08T15:25:49;19.77;;;12.97;;
4738;SDS011;2383;48.632;10.156;2024-03-08T15:29:51;17.10;;;12.10;;
4738;SDS011;2383;48.632;10.156;2024-03-08T15:33:58;17.43;;;12.27;;
4738;SDS011;2383;48.632;10.156;2024-03-08T15:38:03;18.13;;;11.97;;
4738;SDS011;2383;48.632;10.156;2024-03-08T15:42:05;21.90;;;13.40;;
4738;SDS011;2383;48.632;10.156;2024-03-08T15:46:08;17.75;;;12.32;;
4738;SDS011;2383;48.632;10.156;2024-03-08T15:50:13;18.30;;;12.30;;
4738;SDS011;2383;48.632;10.156;2024-03-08T15:54:16;18.27;;;12.80;;
4738;SDS011;2383;48.632;10.156;2024-03-08T15:58:17;17.30;;;12.27;;
4738;SDS011;2383;48.632;10.156;2024-03-08T16:02:21;21.10;;;13.67;;
4738;SDS011;2383;48.632;10.156;2024-03-08T16:06:25;18.10;;;12.13;;
4738;SDS011;2383;48.632;10.156;2024-03-08T16:10:27;17.10;;;11.20;;
4738;SDS011;2383;48.632;10.156;2024-03-08T16:14:36;19.10;;;11.53;;
4738;SDS011;2383;48.632;10.156;2024-03-08T16:18:39;21.07;;;12.43;;
4738;SDS011;2383;48.632;10.156;2024-03-08T16:22:46;21.17;;;12.47;;
4738;SDS011;2383;48.632;10.156;2024-03-08T16:26:48;21.30;;;12.73;;
4738;SDS011;2383;48.632;10.156;2024-03-08T16:30:53;16.57;;;11.47;;
4738;SDS011;2383;48.632;10.156;2024-03-08T16:34:57;18.00;;;12.13;;
4738;SDS011;2383;48.632;10.156;2024-03-08T16:39:00;18.77;;;12.63;;
4738;SDS011;2383;48.632;10.156;2024-03-08T16:43:03;19.47;;;11.93;;
4738;SDS011;2383;48.632;10.156;2024-03-08T16:47:06;16.67;;;11.20;;
4738;SDS011;2383;48.632;10.156;2024-03-08T16:51:08;15.07;;;10.87;;
4738;SDS011;2383;48.632;10.156;2024-03-08T16:55:10;15.37;;;11.07;;
4738;SDS011;2383;48.632;10.156;2024-03-08T16:59:17;16.60;;;11.40;;
4738;SDS011;2383;48.632;10.156;2024-03-08T17:03:19;16.77;;;11.60;;
4738;SDS011;2383;48.632;10.156;2024-03-08T17:07:22;17.13;;;11.20;;
4738;SDS011;2383;48.632;10.156;2024-03-08T17:11:24;16.90;;;10.73;;
4738;SDS011;2383;48.632;10.156;2024-03-08T17:15:27;16.63;;;12.13;;
4738;SDS011;2383;48.632;10.156;2024-03-08T17:19:30;20.40;;;14.37;;
4738;SDS011;2383;48.632;10.156;2024-03-08T17:23:32;17.50;;;12.17;;
4738;SDS011;2383;48.632;10.156;2024-03-08T17:27:35;17.87;;;13.60;;
4738;SDS011;2383;48.632;10.156;2024-03-08T17:31:38;18.73;;;13.00;;
4738;SDS011;2383;48.632;10.156;2024-03-08T17:35:40;25.77;;;18.53;;
4738;SDS011;2383;48.632;10.156;2024-03-08T17:39:42;17.33;;;11.57;;
4738;SDS011;2383;48.632;10.156;2024-03-08T17:43:45;16.10;;;11.13;;
4738;SDS011;2383;48.632;10.156;2024-03-08T17:47:48;15.67;;;10.87;;
4738;SDS011;2383;48.632;10.156;2024-03-08T17:51:52;17.77;;;11.40;;
4738;SDS011;2383;48.632;10.156;2024-03-08T17:55:54;16.87;;;11.13;;
4738;SDS011;2383;48.632;10.156;2024-03-08T17:59:58;16.23;;;10.37;;
4738;SDS011;2383;48.632;10.156;2024-03-08T18:04:00;15.47;;;10.27;;
4738;SDS011;2383;48.632;10.156;2024-03-08T18:08:04;14.23;;;9.57;;
4738;SDS011;2383;48.632;10.156;2024-03-08T18:12:06;17.33;;;9.43;;
4738;SDS011;2383;48.632;10.156;2024-03-08T18:16:10;12.93;;;9.17;;
4738;SDS011;2383;48.632;10.156;2024-03-08T18:20:13;14.73;;;9.00;;
4738;SDS011;2383;48.632;10.156;2024-03-08T18:24:16;16.40;;;9.37;;
4738;SDS011;2383;48.632;10.156;2024-03-08T18:28:19;12.87;;;8.13;;
4738;SDS011;2383;48.632;10.156;2024-03-08T18:32:23;13.97;;;9.30;;
4738;SDS011;2383;48.632;10.156;2024-03-08T18:36:25;17.90;;;9.00;;
4738;SDS011;2383;48.632;10.156;2024-03-08T18:40:31;15.80;;;9.33;;
4738;SDS011;2383;48.632;10.156;2024-03-08T18:44:34;13.83;;;8.27;;
4738;SDS011;2383;48.632;10.156;2024-03-08T18:48:36;15.13;;;9.50;;
4738;SDS011;2383;48.632;10.156;2024-03-08T18:52:40;15.57;;;9.37;;
4738;SDS011;2383;48.632;10.156;2024-03-08T18:56:42;22.37;;;13.53;;
4738;SDS011;2383;48.632;10.156;2024-03-08T19:00:44;84.00;;;36.33;;
4738;SDS011;2383;48.632;10.156;2024-03-08T19:04:50;69.93;;;29.90;;
4738;SDS011;2383;48.632;10.156;2024-03-08T19:08:56;19.80;;;12.37;;
4738;SDS011;2383;48.632;10.156;2024-03-08T19:13:00;17.17;;;10.57;;
4738;SDS011;2383;48.632;10.156;2024-03-08T19:17:03;15.53;;;9.50;;
4738;SDS011;2383;48.632;10.156;2024-03-08T19:21:12;12.40;;;8.83;;
4738;SDS011;2383;48.632;10.156;2024-03-08T19:25:14;13.73;;;9.07;;
4738;SDS011;2383;48.632;10.156;2024-03-08T19:29:20;14.97;;;10.73;;
4738;SDS011;2383;48.632;10.156;2024-03-08T19:33:26;14.83;;;9.17;;
4738;SDS011;2383;48.632;10.156;2024-03-08T19:37:32;14.97;;;9.57;;
4738;SDS011;2383;48.632;10.156;2024-03-08T19:41:35;14.13;;;9.60;;
4738;SDS011;2383;48.632;10.156;2024-03-08T19:45:39;13.23;;;9.03;;
4738;SDS011;2383;48.632;10.156;2024-03-08T19:49:42;16.77;;;10.47;;
4738;SDS011;2383;48.632;10.156;2024-03-08T19:53:44;15.20;;;10.67;;
4738;SDS011;2383;48.632;10.156;2024-03-08T19:57:46;15.93;;;9.70;;
4738;SDS011;2383;48.632;10.156;2024-03-08T20:01:52;12.73;;;9.03;;
4738;SDS011;2383;48.632;10.156;2024-03-08T20:05:54;12.60;;;8.90;;
4738;SDS011;2383;48.632;10.156;2024-03-08T20:09:57;14.90;;;9.97;;
4738;SDS011;2383;48.632;10.156;2024-03-08T20:13:59;14.30;;;9.27;;
4738;SDS011;2383;48.632;10.156;2024-03-08T20:18:02;49.57;;;27.50;;
4738;SDS011;2383;48.632;10.156;2024-03-08T20:22:05;23.87;;;14.50;;
4738;SDS011;2383;48.632;10.156;2024-03-08T20:26:07;19.13;;;12.03;;
4738;SDS011;2383;48.632;10.156;2024-03-08T20:30:13;15.83;;;10.53;;
4738;SDS011;2383;48.632;10.156;2024-03-08T20:34:23;16.07;;;9.90;;
4738;SDS011;2383;48.632;10.156;2024-03-08T20:38:26;14.63;;;9.53;;
4738;SDS011;2383;48.632;10.156;2024-03-08T20:42:28;14.50;;;8.93;;
4738;SDS011;2383;48.632;10.156;2024-03-08T20:46:31;13.93;;;8.97;;
4738;SDS011;2383;48.632;10.156;2024-03-08T20:50:33;13.27;;;8.57;;
4738;SDS011;2383;48.632;10.156;2024-03-08T20:54:39;13.03;;;9.67;;
4738;SDS011;2383;48.632;10.156;2024-03-08T20:58:41;11.67;;;8.83;;
4738;SDS011;2383;48.632;10.156;2024-03-08T21:02:46;13.23;;;9.10;;
4738;SDS011;2383;48.632;10.156;2024-03-08T21:06:48;16.80;;;10.73;;
4738;SDS011;2383;48.632;10.156;2024-03-08T21:10:50;18.20;;;11.60;;
4738;SDS011;2383;48.632;10.156;2024-03-08T21:14:55;20.03;;;11.80;;
4738;SDS011;2383;48.632;10.156;2024-03-08T21:18:58;18.13;;;10.73;;
4738;SDS011;2383;48.632;10.156;2024-03-08T21:23:01;13.47;;;9.17;;
4738;SDS011;2383;48.632;10.156;2024-03-08T21:27:06;15.67;;;11.43;;
4738;SDS011;2383;48.632;10.156;2024-03-08T21:31:09;19.10;;;12.40;;
4738;SDS011;2383;48.632;10.156;2024-03-08T21:35:12;15.27;;;10.10;;
4738;SDS011;2383;48.632;10.156;2024-03-08T21:39:14;17.50;;;10.77;;
4738;SDS011;2383;48.632;10.156;2024-03-08T21:43:17;17.53;;;11.97;;
4738;SDS011;2383;48.632;10.156;2024-03-08T21:47:20;13.10;;;9.60;;
4738;SDS011;2383;48.632;10.156;2024-03-08T21:51:23;15.07;;;9.33;;
4738;SDS011;2383;48.632;10.156;2024-03-08T21:55:25;14.37;;;9.90;;
4738;SDS011;2383;48.632;10.156;2024-03-08T21:59:27;55.63;;;24.03;;
4738;SDS011;2383;48.632;10.156;2024-03-08T22:03:30;51.50;;;21.67;;
4738;SDS011;2383;48.632;10.156;2024-03-08T22:07:36;16.13;;;10.10;;
4738;SDS011;2383;48.632;10.156;2024-03-08T22:11:38;16.10;;;9.77;;
4738;SDS011;2383;48.632;10.156;2024-03-08T22:15:40;14.07;;;8.90;;
4738;SDS011;2383;48.632;10.156;2024-03-08T22:19:46;14.33;;;9.13;;
4738;SDS011;2383;48.632;10.156;2024-03-08T22:23:48;16.03;;;9.47;;
4738;SDS011;2383;48.632;10.156;2024-03-08T22:27:50;17.63;;;10.47;;
4738;SDS011;2383;48.632;10.156;2024-03-08T22:31:54;16.23;;;10.30;;
4738;SDS011;2383;48.632;10.156;2024-03-08T22:35:56;13.37;;;9.07;;
4738;SDS011;2383;48.632;10.156;2024-03-08T22:39:59;17.60;;;10.50;;
4738;SDS011;2383;48.632;10.156;2024-03-08T22:44:02;17.43;;;10.77;;
4738;SDS011;2383;48.632;10.156;2024-03-08T22:48:05;16.40;;;10.53;;
4738;SDS011;2383;48.632;10.156;2024-03-08T22:52:08;19.87;;;11.77;;
4738;SDS011;2383;48.632;10.156;2024-03-08T22:56:12;14.23;;;10.03;;
4738;SDS011;2383;48.632;10.156;2024-03-08T23:00:16;15.97;;;10.70;;
4738;SDS011;2383;48.632;10.156;2024-03-08T23:04:19;17.63;;;11.90;;
4738;SDS011;2383;48.632;10.156;2024-03-08T23:08:22;14.60;;;10.13;;
4738;SDS011;2383;48.632;10.156;2024-03-08T23:12:25;20.37;;;12.10;;
4738;SDS011;2383;48.632;10.156;2024-03-08T23:16:28;18.10;;;10.87;;
4738;SDS011;2383;48.632;10.156;2024-03-08T23:20:31;17.20;;;11.70;;
4738;SDS011;2383;48.632;10.156;2024-03-08T23:24:35;15.60;;;9.90;;
4738;SDS011;2383;48.632;10.156;2024-03-08T23:28:38;18.17;;;10.67;;
4738;SDS011;2383;48.632;10.156;2024-03-08T23:32:42;16.53;;;10.80;;
4738;SDS011;2383;48.632;10.156;2024-03-08T23:36:47;16.90;;;10.27;;
4738;SDS011;2383;48.632;10.156;2024-03-08T23:40:51;16.30;;;10.50;;
4738;SDS011;2383;48.632;10.156;2024-03-08T23:44:53;14.80;;;10.83;;
4738;SDS011;2383;48.632;10.156;2024-03-08T23:48:55;14.97;;;10.60;;
4738;SDS011;2383;48.632;10.156;2024-03-08T23:52:58;14.57;;;9.70;;
4738;SDS011;2383;48.632;10.156;2024-03-08T23:57:04;17.67;;;10.70;;
